createdAt,value
2023-02-13T00:00:26.961Z,102854.74
2023-02-13T00:04:32.508Z,102853.95
2023-02-13T00:08:45.227Z,102852.17
2023-02-13T00:12:57.139Z,102842.45
2023-02-13T00:17:09.581Z,102843.13
2023-02-13T00:21:21.703Z,102847.30
2023-02-13T00:25:33.910Z,102849.36
2023-02-13T00:29:46.221Z,102846.61
2023-02-13T00:33:58.556Z,102847.63
2023-02-13T00:38:10.460Z,102849.19
2023-02-13T00:42:24.599Z,102846.58
2023-02-13T00:46:37.424Z,102848.65
2023-02-13T00:50:49.797Z,102851.30
2023-02-13T00:55:02.308Z,102851.42
2023-02-13T00:59:06.133Z,102842.23
2023-02-13T01:03:18.351Z,102830.94
2023-02-13T01:07:30.257Z,102828.30
2023-02-13T01:11:42.385Z,102829.17
2023-02-13T01:15:46.168Z,102829.20
2023-02-13T01:19:58.413Z,102827.77
2023-02-13T01:24:10.599Z,102823.63
2023-02-13T01:28:16.066Z,102828.70
2023-02-13T01:32:28.359Z,102828.40
2023-02-13T01:36:40.534Z,102828.03
2023-02-13T01:40:53.412Z,102823.79
2023-02-13T01:45:04.545Z,102817.71
2023-02-13T01:49:17.274Z,102814.77
2023-02-13T01:53:29.647Z,102814.73
2023-02-13T01:57:55.176Z,102812.22
2023-02-13T02:02:08.069Z,102801.06
2023-02-13T02:06:20.545Z,102798.00
2023-02-13T02:10:33.030Z,102803.59
2023-02-13T02:14:44.920Z,102804.14
2023-02-13T02:18:57.244Z,102800.49
2023-02-13T02:23:08.328Z,102800.36
2023-02-13T02:27:20.654Z,102803.97
2023-02-13T02:31:26.811Z,102802.73
2023-02-13T02:35:27.437Z,102803.17
2023-02-13T02:39:37.775Z,102798.33
2023-02-13T02:43:50.232Z,102796.16
2023-02-13T02:48:06.523Z,102796.73
2023-02-13T02:52:21.628Z,102786.46
2023-02-13T02:56:33.705Z,102787.70
2023-02-13T03:00:44.332Z,102782.83
2023-02-13T03:04:49.401Z,102784.98
2023-02-13T03:09:00.110Z,102771.75
2023-02-13T03:13:13.568Z,102777.00
2023-02-13T03:17:18.828Z,102772.69
2023-02-13T03:21:42.918Z,102771.29
2023-02-13T03:25:54.951Z,102765.64
2023-02-13T03:30:04.710Z,102769.05
2023-02-13T03:34:19.920Z,102776.86
2023-02-13T03:38:32.032Z,102776.39
2023-02-13T03:42:56.263Z,102767.68
2023-02-13T03:47:08.529Z,102777.08
2023-02-13T03:51:20.733Z,102784.11
2023-02-13T03:55:34.185Z,102779.46
2023-02-13T03:59:46.489Z,102771.88
2023-02-13T04:03:56.246Z,102765.66
2023-02-13T04:08:01.140Z,102770.46
2023-02-13T04:12:11.289Z,102776.92
2023-02-13T04:16:22.282Z,102774.51
2023-02-13T04:20:32.961Z,102771.92
2023-02-13T04:24:45.569Z,102783.20
2023-02-13T04:28:57.473Z,102779.92
2023-02-13T04:33:04.249Z,102780.00
2023-02-13T04:37:16.263Z,102775.55
2023-02-13T04:41:28.462Z,102771.08
2023-02-13T04:45:40.461Z,102764.41
2023-02-13T04:49:53.013Z,102764.05
2023-02-13T04:54:00.470Z,102766.51
2023-02-13T04:58:13.085Z,102767.59
2023-02-13T05:02:25.139Z,102775.81
2023-02-13T05:06:37.393Z,102783.20
2023-02-13T05:10:49.607Z,102779.67
2023-02-13T05:15:01.852Z,102788.80
2023-02-13T05:19:13.818Z,102789.52
2023-02-13T05:23:45.978Z,102791.94
2023-02-13T05:27:53.277Z,102788.15
2023-02-13T05:32:05.553Z,102780.90
2023-02-13T05:36:17.426Z,102777.64
2023-02-13T05:40:24.150Z,102783.01
2023-02-13T05:44:35.948Z,102789.52
2023-02-13T05:48:48.018Z,102795.59
2023-02-13T05:53:00.108Z,102800.57
2023-02-13T05:57:12.407Z,102801.47
2023-02-13T06:01:24.843Z,102793.63
2023-02-13T06:05:37.296Z,102792.86
2023-02-13T06:09:49.312Z,102809.58
2023-02-13T06:14:01.592Z,102813.65
2023-02-13T06:18:08.195Z,102818.67
2023-02-13T06:22:20.714Z,102810.38
2023-02-13T06:26:33.303Z,102808.61
2023-02-13T06:30:45.775Z,102806.77
2023-02-13T06:34:58.473Z,102809.26
2023-02-13T06:39:10.538Z,102809.73
2023-02-13T06:43:22.828Z,102803.70
2023-02-13T06:47:34.915Z,102797.45
2023-02-13T06:51:48.476Z,102796.38
2023-02-13T06:56:00.703Z,102788.17
2023-02-13T07:00:15.012Z,102792.47
2023-02-13T07:04:26.896Z,102791.55
2023-02-13T07:08:36.799Z,102791.10
2023-02-13T07:13:03.545Z,102795.58
2023-02-13T07:17:31.123Z,102802.30
2023-02-13T07:21:43.485Z,102800.42
2023-02-13T07:26:09.475Z,102796.52
2023-02-13T07:30:22.459Z,102794.48
2023-02-13T07:34:34.592Z,102800.27
2023-02-13T07:38:47.496Z,102798.02
2023-02-13T07:43:00.374Z,102814.69
2023-02-13T07:47:12.537Z,102819.25
2023-02-13T07:51:24.521Z,102824.08
2023-02-13T07:55:36.907Z,102827.08
2023-02-13T08:00:07.471Z,102829.67
2023-02-13T08:04:19.721Z,102833.13
2023-02-13T08:08:32.302Z,102828.27
2023-02-13T08:12:46.124Z,102822.79
2023-02-13T08:16:58.153Z,102823.00
2023-02-13T08:21:10.301Z,102815.90
2023-02-13T08:25:22.792Z,102808.85
2023-02-13T08:29:30.578Z,102803.30
2023-02-13T08:33:44.956Z,102796.73
2023-02-13T08:37:57.301Z,102792.21
2023-02-13T08:42:10.029Z,102789.30
2023-02-13T08:46:22.841Z,102797.80
2023-02-13T08:50:29.219Z,102801.47
2023-02-13T08:54:41.593Z,102818.67
2023-02-13T08:58:53.474Z,102823.64
2023-02-13T09:03:05.660Z,102821.62
2023-02-13T09:07:18.953Z,102820.45
2023-02-13T09:11:31.151Z,102815.67
2023-02-13T09:15:43.353Z,102812.20
2023-02-13T09:19:55.622Z,102812.13
2023-02-13T09:24:21.772Z,102820.00
2023-02-13T09:28:33.832Z,102829.77
2023-02-13T09:32:45.648Z,102817.84
2023-02-13T09:37:16.680Z,102815.64
2023-02-13T09:41:27.998Z,102817.36
2023-02-13T09:45:40.656Z,102809.22
2023-02-13T09:49:55.583Z,102798.61
2023-02-13T09:54:20.540Z,102805.47
2023-02-13T09:58:44.142Z,102801.11
2023-02-13T10:03:02.291Z,102802.19
2023-02-13T10:07:20.491Z,102805.08
2023-02-13T10:11:32.603Z,102786.87
2023-02-13T10:15:44.515Z,102805.89
2023-02-13T10:19:54.935Z,102797.81
2023-02-13T10:24:06.880Z,102809.14
2023-02-13T10:28:19.320Z,102806.34
2023-02-13T10:32:30.971Z,102810.39
2023-02-13T10:36:47.736Z,102821.34
2023-02-13T10:41:00.113Z,102812.14
2023-02-13T10:45:12.775Z,102806.96
2023-02-13T10:49:24.796Z,102787.95
2023-02-13T10:53:48.998Z,102793.54
2023-02-13T10:58:19.867Z,102782.63
2023-02-13T11:02:34.455Z,102779.20
2023-02-13T11:06:46.291Z,102781.39
2023-02-13T11:11:01.615Z,102781.11
2023-02-13T11:15:14.840Z,102769.46
2023-02-13T11:19:40.411Z,102777.89
2023-02-13T11:24:04.899Z,102770.65
2023-02-13T11:28:17.334Z,102767.77
2023-02-13T11:32:29.148Z,102761.72
2023-02-13T11:36:44.440Z,102741.46
2023-02-13T11:41:02.667Z,102731.87
2023-02-13T11:45:09.261Z,102744.96
2023-02-13T11:49:21.071Z,102745.89
2023-02-13T11:53:46.854Z,102731.34
2023-02-13T11:57:57.417Z,102736.77
2023-02-13T12:02:09.773Z,102743.15
2023-02-13T12:06:20.256Z,102740.73
2023-02-13T12:10:31.500Z,102740.25
2023-02-13T12:14:44.600Z,102739.33
2023-02-13T12:18:51.840Z,102746.00
2023-02-13T12:23:07.216Z,102742.43
2023-02-13T12:27:19.621Z,102739.40
2023-02-13T12:31:31.473Z,102741.90
2023-02-13T12:36:03.137Z,102721.13
2023-02-13T12:40:15.197Z,102744.72
2023-02-13T12:44:33.214Z,102752.30
2023-02-13T12:49:11.311Z,102756.50
2023-02-13T12:53:09.593Z,102754.38
2023-02-13T12:57:21.953Z,102747.27
2023-02-13T13:01:35.241Z,102746.80
2023-02-13T13:05:50.661Z,102730.77
2023-02-13T13:10:09.583Z,102735.15
2023-02-13T13:14:14.817Z,102750.80
2023-02-13T13:19:02.918Z,102751.41
2023-02-13T13:23:12.895Z,102755.23
2023-02-13T13:27:25.824Z,102763.80
2023-02-13T13:31:30.815Z,102754.67
2023-02-13T13:35:43.119Z,102750.10
2023-02-13T13:40:04.176Z,102760.95
2023-02-13T13:44:18.589Z,102748.84
2023-02-13T13:48:30.853Z,102753.01
2023-02-13T13:52:41.121Z,102751.94
2023-02-13T13:57:07.339Z,102762.73
2023-02-13T14:01:20.200Z,102758.70
2023-02-13T14:05:30.620Z,102749.44
2023-02-13T14:09:41.695Z,102745.79
2023-02-13T14:14:17.281Z,102746.77
2023-02-13T14:18:29.795Z,102748.89
2023-02-13T14:22:34.921Z,102747.42
2023-02-13T14:27:04.771Z,102737.67
2023-02-13T14:31:18.697Z,102727.30
2023-02-13T14:35:48.506Z,102727.71
2023-02-13T14:40:00.504Z,102734.87
2023-02-13T14:44:13.140Z,102738.54
2023-02-13T14:48:25.575Z,102740.18
2023-02-13T14:52:37.658Z,102741.54
2023-02-13T14:56:49.960Z,102741.18
2023-02-13T15:01:02.353Z,102746.14
2023-02-13T15:05:11.031Z,102751.95
2023-02-13T15:09:23.311Z,102754.40
2023-02-13T15:13:38.770Z,102755.73
2023-02-13T15:17:51.038Z,102758.36
2023-02-13T15:21:58.033Z,102758.09
2023-02-13T15:26:16.562Z,102758.28
2023-02-13T15:30:27.243Z,102762.25
2023-02-13T15:34:54.851Z,102755.70
2023-02-13T15:39:09.234Z,102758.62
2023-02-13T15:43:21.980Z,102761.81
2023-02-13T15:47:34.353Z,102756.08
2023-02-13T15:51:46.753Z,102750.34
2023-02-13T15:55:51.930Z,102758.51
2023-02-13T16:00:04.263Z,102755.19
2023-02-13T16:04:16.716Z,102753.77
2023-02-13T16:08:35.194Z,102760.02
2023-02-13T16:12:47.753Z,102771.52
2023-02-13T16:17:00.348Z,102774.85
2023-02-13T16:21:05.326Z,102785.84
2023-02-13T16:25:09.355Z,102783.48
2023-02-13T16:29:21.393Z,102787.84
2023-02-13T16:33:33.330Z,102790.22
2023-02-13T16:37:46.007Z,102791.54
2023-02-13T16:41:58.051Z,102796.45
2023-02-13T16:46:03.224Z,102799.02
2023-02-13T16:50:15.894Z,102806.52
2023-02-13T16:54:45.398Z,102810.79
2023-02-13T16:58:56.734Z,102815.84
2023-02-13T17:03:09.342Z,102814.40
2023-02-13T17:07:22.195Z,102818.90
2023-02-13T17:11:46.863Z,102815.50
2023-02-13T17:15:59.532Z,102816.65
2023-02-13T17:20:11.582Z,102814.73
2023-02-13T17:24:24.397Z,102813.74
2023-02-13T17:28:27.274Z,102813.46
2023-02-13T17:32:36.705Z,102811.80
2023-02-13T17:36:49.225Z,102819.04
2023-02-13T17:41:01.737Z,102817.48
2023-02-13T17:45:13.580Z,102817.14
2023-02-13T17:49:25.641Z,102819.41
2023-02-13T17:53:37.798Z,102825.08
2023-02-13T17:57:49.835Z,102827.15
2023-02-13T18:02:02.017Z,102819.72
2023-02-13T18:06:07.420Z,102824.60
2023-02-13T18:10:20.058Z,102836.07
2023-02-13T18:14:32.074Z,102835.66
2023-02-13T18:18:44.635Z,102836.29
2023-02-13T18:22:56.514Z,102842.14
2023-02-13T18:27:08.545Z,102845.09
2023-02-13T18:31:20.515Z,102844.21
2023-02-13T18:35:36.287Z,102845.06
2023-02-13T18:40:02.624Z,102848.96
2023-02-13T18:44:44.164Z,102851.31
2023-02-13T18:48:58.274Z,102852.77
2023-02-13T18:53:10.910Z,102850.29
2023-02-13T18:57:05.133Z,102855.71
2023-02-13T19:01:17.686Z,102859.36
2023-02-13T19:05:29.901Z,102859.08
2023-02-13T19:09:42.316Z,102861.48
2023-02-13T19:13:49.647Z,102866.83
2023-02-13T19:18:02.086Z,102866.09
2023-02-13T19:21:58.974Z,102867.16
2023-02-13T19:26:05.771Z,102874.30
2023-02-13T19:30:18.484Z,102876.12
2023-02-13T19:34:30.846Z,102871.41
2023-02-13T19:38:43.412Z,102882.94
2023-02-13T19:42:55.570Z,102878.09
2023-02-13T19:47:07.744Z,102881.66
2023-02-13T19:51:20.177Z,102883.61
2023-02-13T19:55:32.255Z,102888.48
2023-02-13T19:59:44.758Z,102894.40
2023-02-13T20:03:51.722Z,102889.66
2023-02-13T20:08:04.056Z,102890.50
2023-02-13T20:12:16.343Z,102894.23
2023-02-13T20:16:28.215Z,102896.44
2023-02-13T20:20:40.948Z,102902.88
2023-02-13T20:24:53.348Z,102905.95
2023-02-13T20:29:05.388Z,102905.25
2023-02-13T20:33:17.734Z,102905.58
2023-02-13T20:37:29.974Z,102901.85
2023-02-13T20:41:41.552Z,102901.11
2023-02-13T20:45:53.837Z,102906.73
2023-02-13T20:50:19.783Z,102903.55
2023-02-13T20:54:32.100Z,102907.75
2023-02-13T20:58:44.720Z,102910.79
2023-02-13T21:02:57.367Z,102914.21
2023-02-13T21:07:09.666Z,102918.11
2023-02-13T21:11:22.706Z,102921.44
2023-02-13T21:15:41.113Z,102929.55
2023-02-13T21:19:53.299Z,102929.77
2023-02-13T21:24:08.366Z,102936.92
2023-02-13T21:28:20.129Z,102945.98
2023-02-13T21:32:27.746Z,102946.86
2023-02-13T21:36:39.847Z,102948.30
2023-02-13T21:40:52.748Z,102949.10
2023-02-13T21:45:05.043Z,102950.55
2023-02-13T21:49:17.700Z,102944.52
2023-02-13T21:53:29.850Z,102946.61
2023-02-13T21:57:34.477Z,102952.23
2023-02-13T22:01:46.665Z,102956.49
2023-02-13T22:05:59.818Z,102955.45
2023-02-13T22:10:12.355Z,102951.87
2023-02-13T22:14:25.131Z,102955.33
2023-02-13T22:18:37.914Z,102961.19
2023-02-13T22:22:50.114Z,102962.95
2023-02-13T22:27:00.525Z,102967.52
2023-02-13T22:31:12.828Z,102965.95
2023-02-13T22:35:25.583Z,102970.09
2023-02-13T22:39:51.626Z,102971.88
2023-02-13T22:44:04.136Z,102977.19
2023-02-13T22:48:16.205Z,102976.02
2023-02-13T22:52:28.600Z,102976.98
2023-02-13T22:56:40.620Z,102988.58
2023-02-13T23:00:47.698Z,102988.95
2023-02-13T23:04:59.630Z,102985.64
2023-02-13T23:09:11.759Z,102983.39
2023-02-13T23:13:17.252Z,102983.33
2023-02-13T23:17:27.710Z,102978.42
2023-02-13T23:21:43.052Z,102979.89
2023-02-13T23:26:13.860Z,102988.48
2023-02-13T23:30:28.035Z,102993.88
2023-02-13T23:34:40.514Z,102986.27
2023-02-13T23:38:53.007Z,102991.54
2023-02-13T23:43:05.530Z,102999.42
2023-02-13T23:47:17.870Z,102996.64
2023-02-13T23:51:44.027Z,102994.88
2023-02-13T23:55:50.662Z,102993.39
